Melrose, Minnesota
Current Conditions -  °F | °C
As of 1:32 AM on Saturday 29 Nov 2014 (Local Time) from KD39 Reporting Station
Overcast Overcast  
Wind Chill: 10°   Ceiling: 800
Heat Index: 20°   Visibility: 7mi
Dew Point: 18°   Wind: 9mph
Humidity: 91%   Direction: 120°ESE
Pressure: 29.55"   Gusts: NA
Location:  45.67°N, 94.81°W
Report Text: KD39 290732Z AUTO 12008KT 7SM OVC008 M06/M08 A2955 RMK AO2 T10651077
Loading
Personal Weather Stations






























Interactive Weather Map New forecast layout! Learn more

10-Day Weather Forecast

Advertisements
Track Severe Weather on mobile